createdAt,value
2019-05-07T00:03:32.811Z,20.70
2019-05-07T00:08:38.357Z,18.77
2019-05-07T00:13:44.437Z,21.30
2019-05-07T00:18:52.409Z,21.53
2019-05-07T00:23:57.203Z,20.17
2019-05-07T00:29:02.617Z,25.57
2019-05-07T00:34:08.126Z,26.40
2019-05-07T00:39:35.529Z,20.97
2019-05-07T00:44:57.358Z,26.40
2019-05-07T00:50:07.313Z,27.10
2019-05-07T00:55:12.727Z,29.73
2019-05-07T01:00:18.152Z,28.13
2019-05-07T01:05:23.583Z,21.87
2019-05-07T01:10:28.984Z,20.80
2019-05-07T01:15:34.881Z,27.30
2019-05-07T01:20:42.267Z,20.77
2019-05-07T01:25:47.489Z,26.27
2019-05-07T01:30:53.070Z,25.70
2019-05-07T01:36:22.361Z,23.47
2019-05-07T01:41:27.137Z,20.97
2019-05-07T01:46:32.585Z,23.70
2019-05-07T01:51:37.979Z,28.53
2019-05-07T01:56:43.391Z,28.27
2019-05-07T02:01:52.294Z,23.27
2019-05-07T02:07:15.319Z,20.47
2019-05-07T02:12:25.116Z,23.97
2019-05-07T02:17:32.237Z,22.63
2019-05-07T02:22:37.751Z,25.87
2019-05-07T02:27:43.153Z,22.73
2019-05-07T02:32:48.579Z,25.30
2019-05-07T02:38:03.113Z,24.87
2019-05-07T02:43:08.201Z,25.93
2019-05-07T02:48:15.439Z,25.40
2019-05-07T02:53:48.766Z,23.23
2019-05-07T02:58:54.159Z,23.27
2019-05-07T03:03:59.589Z,27.93
2019-05-07T03:09:06.387Z,25.73
2019-05-07T03:14:14.105Z,25.30
2019-05-07T03:19:19.057Z,22.60
2019-05-07T03:24:39.357Z,25.50
2019-05-07T03:29:53.499Z,25.97
2019-05-07T03:35:15.676Z,28.03
2019-05-07T03:40:17.592Z,24.33
2019-05-07T03:45:43.235Z,26.40
2019-05-07T03:50:49.059Z,26.50
2019-05-07T03:55:54.473Z,26.20
2019-05-07T04:00:59.871Z,27.13
2019-05-07T04:06:05.532Z,25.43
2019-05-07T04:11:13.407Z,26.10
2019-05-07T04:16:18.089Z,27.40
2019-05-07T04:21:23.563Z,26.53
2019-05-07T04:26:38.444Z,27.47
2019-05-07T04:31:44.051Z,25.93
2019-05-07T04:36:53.158Z,26.97
2019-05-07T04:41:57.584Z,26.50
2019-05-07T04:47:04.293Z,26.13
2019-05-07T04:52:15.257Z,22.63
2019-05-07T04:57:26.965Z,33.30
2019-05-07T05:02:48.546Z,25.63
2019-05-07T05:07:54.015Z,24.57
2019-05-07T05:12:59.426Z,28.97
2019-05-07T05:18:04.843Z,29.97
2019-05-07T05:23:17.975Z,24.30
2019-05-07T05:28:23.545Z,24.83
2019-05-07T05:33:29.033Z,25.20
2019-05-07T05:38:34.466Z,24.87
2019-05-07T05:43:45.768Z,24.83
2019-05-07T05:48:52.005Z,25.27
2019-05-07T05:54:05.349Z,22.70
2019-05-07T05:59:46.939Z,25.40
2019-05-07T06:05:02.169Z,22.00
2019-05-07T06:10:22.696Z,20.23
2019-05-07T06:15:45.271Z,22.90
2019-05-07T06:21:04.778Z,17.03
2019-05-07T06:26:12.650Z,19.03
2019-05-07T06:31:17.560Z,16.97
2019-05-07T06:36:23.013Z,17.17
2019-05-07T06:41:45.636Z,17.97
2019-05-07T06:46:52.640Z,18.13
2019-05-07T06:51:58.416Z,18.23
2019-05-07T06:57:03.828Z,17.20
2019-05-07T07:02:26.743Z,16.03
2019-05-07T07:07:42.124Z,16.77
2019-05-07T07:12:48.234Z,13.03
2019-05-07T07:17:53.949Z,15.87
2019-05-07T07:22:59.786Z,21.90
2019-05-07T07:28:05.288Z,19.27
2019-05-07T07:33:12.201Z,22.43
2019-05-07T07:38:33.517Z,21.03
2019-05-07T07:43:39.122Z,26.17
2019-05-07T07:48:44.805Z,22.43
2019-05-07T07:53:52.032Z,24.40
2019-05-07T07:59:16.428Z,23.50
2019-05-07T08:04:22.956Z,19.10
2019-05-07T08:09:28.586Z,22.70
2019-05-07T08:14:34.229Z,20.00
2019-05-07T08:19:39.665Z,20.73
2019-05-07T08:24:45.189Z,20.87
2019-05-07T08:29:52.453Z,23.03
2019-05-07T08:35:14.323Z,21.57
2019-05-07T08:40:21.936Z,20.83
2019-05-07T08:45:44.538Z,20.60
2019-05-07T08:50:49.939Z,20.57
2019-05-07T08:55:55.421Z,18.23
2019-05-07T09:01:03.000Z,21.33
2019-05-07T09:06:08.165Z,19.20
2019-05-07T09:11:13.877Z,17.87
2019-05-07T09:16:19.624Z,21.47
2019-05-07T09:21:25.374Z,15.40
2019-05-07T09:26:38.017Z,17.73
2019-05-07T09:32:03.018Z,18.00
2019-05-07T09:37:12.434Z,19.23
2019-05-07T09:42:17.977Z,16.50
2019-05-07T09:47:23.473Z,16.20
2019-05-07T09:52:28.940Z,19.63
2019-05-07T09:57:34.830Z,20.60
2019-05-07T10:02:42.327Z,17.33
2019-05-07T10:07:47.619Z,17.80
2019-05-07T10:13:12.182Z,17.13
2019-05-07T10:18:19.256Z,17.53
2019-05-07T10:23:24.814Z,19.97
2019-05-07T10:28:32.061Z,19.97
2019-05-07T10:33:37.398Z,19.87
2019-05-07T10:38:42.917Z,17.60
2019-05-07T10:43:48.418Z,16.57
2019-05-07T10:49:02.111Z,15.77
2019-05-07T10:54:07.587Z,15.70
2019-05-07T10:59:13.044Z,16.27
2019-05-07T11:04:18.470Z,15.73
2019-05-07T11:09:23.957Z,16.77
2019-05-07T11:14:29.565Z,17.40
2019-05-07T11:19:35.068Z,15.00
2019-05-07T11:24:42.600Z,15.23
2019-05-07T11:29:47.942Z,15.13
2019-05-07T11:34:56.302Z,18.50
2019-05-07T11:40:03.047Z,15.80
2019-05-07T11:45:12.602Z,16.27
2019-05-07T11:50:33.056Z,15.03
2019-05-07T11:55:38.617Z,16.73
2019-05-07T12:00:52.580Z,18.37
2019-05-07T12:05:57.999Z,19.47
2019-05-07T12:11:03.435Z,19.33
2019-05-07T12:16:11.474Z,17.03
2019-05-07T12:21:20.786Z,16.10
2019-05-07T12:26:23.196Z,21.33
2019-05-07T12:32:05.486Z,17.50
2019-05-07T12:37:12.281Z,17.40
2019-05-07T12:42:18.781Z,15.77
2019-05-07T12:47:24.765Z,20.00
2019-05-07T12:52:36.055Z,15.57
2019-05-07T12:57:42.066Z,14.37
2019-05-07T13:03:07.854Z,17.33
2019-05-07T13:08:13.290Z,14.67
2019-05-07T13:13:18.778Z,17.83
2019-05-07T13:18:24.580Z,16.47
2019-05-07T13:23:31.835Z,16.63
2019-05-07T13:28:37.393Z,20.60
2019-05-07T13:33:42.843Z,15.20
2019-05-07T13:39:02.423Z,13.67
2019-05-07T13:44:26.849Z,13.23
2019-05-07T13:49:32.383Z,12.83
2019-05-07T13:54:38.023Z,18.50
2019-05-07T13:59:44.038Z,11.40
2019-05-07T14:04:49.531Z,14.23
2019-05-07T14:09:54.966Z,12.53
2019-05-07T14:15:02.142Z,12.20
2019-05-07T14:20:08.114Z,9.70
2019-05-07T14:25:13.610Z,10.83
2019-05-07T14:30:21.746Z,8.67
2019-05-07T14:35:32.683Z,10.73
2019-05-07T14:40:38.188Z,8.97
2019-05-07T14:45:43.649Z,8.00
2019-05-07T14:50:49.109Z,11.77
2019-05-07T14:55:54.599Z,9.33
2019-05-07T15:01:02.275Z,8.67
2019-05-07T15:06:07.169Z,8.77
2019-05-07T15:11:12.875Z,10.57
2019-05-07T15:16:18.292Z,10.47
2019-05-07T15:21:24.127Z,10.23
2019-05-07T15:26:29.645Z,9.93
2019-05-07T15:31:52.399Z,11.10
2019-05-07T15:36:57.834Z,11.00
2019-05-07T15:42:03.252Z,7.17
2019-05-07T15:47:13.370Z,8.53
2019-05-07T15:52:24.523Z,7.83
2019-05-07T15:57:30.274Z,10.57
2019-05-07T16:02:38.808Z,10.00
2019-05-07T16:07:45.998Z,9.93
2019-05-07T16:12:53.064Z,8.37
2019-05-07T16:18:02.967Z,7.90
2019-05-07T16:23:14.728Z,8.10
2019-05-07T16:28:15.876Z,6.40
2019-05-07T16:33:21.418Z,8.50
2019-05-07T16:38:26.867Z,5.23
2019-05-07T16:43:32.464Z,6.87
2019-05-07T16:48:37.920Z,6.30
2019-05-07T16:53:43.355Z,5.93
2019-05-07T16:58:53.248Z,7.93
2019-05-07T17:04:00.143Z,6.83
2019-05-07T17:09:14.638Z,6.90
2019-05-07T17:14:20.119Z,10.60
2019-05-07T17:19:25.563Z,6.73
2019-05-07T17:24:32.874Z,7.53
2019-05-07T17:29:38.137Z,5.60
2019-05-07T17:34:43.664Z,8.47
2019-05-07T17:39:49.099Z,7.43
2019-05-07T17:44:54.488Z,8.97
2019-05-07T17:50:02.043Z,5.63
2019-05-07T17:55:10.131Z,8.70
2019-05-07T18:00:15.707Z,8.30
2019-05-07T18:05:21.640Z,8.73
2019-05-07T18:10:27.231Z,10.23
2019-05-07T18:15:33.174Z,11.47
2019-05-07T18:20:38.674Z,7.60
2019-05-07T18:25:44.271Z,10.23
2019-05-07T18:30:49.968Z,7.23
2019-05-07T18:35:55.348Z,5.47
2019-05-07T18:41:02.654Z,9.30
2019-05-07T18:46:08.558Z,7.70
2019-05-07T18:51:14.102Z,7.17
2019-05-07T18:56:21.892Z,6.23
2019-05-07T19:01:28.570Z,9.97
2019-05-07T19:06:34.108Z,5.80
2019-05-07T19:11:39.761Z,7.30
2019-05-07T19:16:45.322Z,5.20
2019-05-07T19:21:52.783Z,9.37
2019-05-07T19:26:57.992Z,8.57
2019-05-07T19:32:04.273Z,10.20
2019-05-07T19:37:09.894Z,12.20
2019-05-07T19:42:15.369Z,8.20
2019-05-07T19:47:23.070Z,6.57
2019-05-07T19:52:28.316Z,9.37
2019-05-07T19:57:39.151Z,11.40
2019-05-07T20:02:47.661Z,14.47
2019-05-07T20:07:55.596Z,8.50
2019-05-07T20:13:00.215Z,7.77
2019-05-07T20:18:05.913Z,10.77
2019-05-07T20:23:12.024Z,8.30
2019-05-07T20:28:17.553Z,7.63
2019-05-07T20:33:23.066Z,7.30
2019-05-07T20:38:28.676Z,8.87
2019-05-07T20:43:34.087Z,6.87
2019-05-07T20:48:42.141Z,7.97
2019-05-07T20:54:14.389Z,8.33
2019-05-07T20:59:21.917Z,8.60
2019-05-07T21:04:27.335Z,7.53
2019-05-07T21:09:33.008Z,7.17
2019-05-07T21:14:38.650Z,6.90
2019-05-07T21:19:44.064Z,8.07
2019-05-07T21:24:49.479Z,10.80
2019-05-07T21:29:54.888Z,7.27
2019-05-07T21:35:00.304Z,8.20
2019-05-07T21:40:06.199Z,10.43
2019-05-07T21:45:11.648Z,10.13
2019-05-07T21:50:17.053Z,10.60
2019-05-07T21:55:34.625Z,7.80
2019-05-07T22:00:54.392Z,8.90
2019-05-07T22:05:59.795Z,6.73
2019-05-07T22:11:05.403Z,6.40
2019-05-07T22:16:12.967Z,9.40
2019-05-07T22:21:20.163Z,7.53
2019-05-07T22:26:26.565Z,7.43
2019-05-07T22:32:09.053Z,8.53
2019-05-07T22:37:14.603Z,7.77
2019-05-07T22:42:22.223Z,6.00
2019-05-07T22:47:27.278Z,7.87
2019-05-07T22:52:32.790Z,8.23
2019-05-07T22:57:44.049Z,8.87
2019-05-07T23:02:51.704Z,9.37
2019-05-07T23:07:56.752Z,7.50
2019-05-07T23:13:04.258Z,9.33
2019-05-07T23:18:09.665Z,9.60
2019-05-07T23:23:15.085Z,9.90
2019-05-07T23:28:22.800Z,7.50
2019-05-07T23:33:27.633Z,7.37
2019-05-07T23:38:33.035Z,7.37
2019-05-07T23:43:38.709Z,7.47
2019-05-07T23:48:44.197Z,10.53
2019-05-07T23:53:51.825Z,7.43
2019-05-07T23:58:56.777Z,8.70
